Time;durP1;ratioP1;P1;durP2;ratioP2;P2;SDS_P1;SDS_P2;PMS_P1;PMS_P2;Temp;Humidity;BMP_temperature;BMP_pressure;BME280_temperature;BME280_humidity;BME280_pressure;Samples;Min_cycle;Max_cycle;Signal;HPM_P1;HPM_P2
2022/08/16 00:02:20;;;;;;;;;;;;;;;18.32;100.00;99039.19;5073849;28;925;-63
2022/08/16 00:04:47;;;;;;;;;;;;;;;18.35;100.00;99036.22;5072879;28;1294;-63
2022/08/16 00:07:13;;;;;;;;;;;;;;;18.36;100.00;99046.16;5073743;28;839;-63
2022/08/16 00:09:40;;;;;;;;;;;;;;;18.35;100.00;99033.44;5073657;28;851;-63
2022/08/16 00:12:07;;;;;;;;;;;;;;;18.30;100.00;99038.88;5073630;28;1021;-63
2022/08/16 00:14:34;;;;;;;;;;;;;;;18.21;100.00;99033.34;5055507;28;1963;-63
2022/08/16 00:17:00;;;;;;;;;;;;;;;18.13;100.00;99042.06;5073498;28;808;-62
2022/08/16 00:19:29;;;;;;;;;;;;;;;18.06;100.00;99044.44;5073554;28;886;-62
2022/08/16 00:21:57;;;;;;;;;;;;;;;17.98;100.00;99041.19;5073562;28;906;-63
2022/08/16 00:24:25;;;;;;;;;;;;;;;17.92;100.00;99045.88;5073596;28;890;-63
2022/08/16 00:26:52;;;;;;;;;;;;;;;17.91;100.00;99055.53;5073691;28;887;-62
2022/08/16 00:29:19;;;;;;;;;;;;;;;17.87;100.00;99061.28;5073232;28;854;-62
2022/08/16 00:31:47;;;;;;;;;;;;;;;17.85;100.00;99051.81;5073332;28;895;-62
2022/08/16 00:34:14;;;;;;;;;;;;;;;17.95;100.00;99056.91;5055131;28;1877;-63
2022/08/16 00:36:45;;;;;;;;;;;;;;;18.03;100.00;99057.34;5073308;28;819;-62
2022/08/16 00:39:12;;;;;;;;;;;;;;;18.08;100.00;99055.94;5073050;28;879;-62
2022/08/16 00:41:40;;;;;;;;;;;;;;;18.13;100.00;99055.28;5073034;28;879;-63
2022/08/16 00:44:10;;;;;;;;;;;;;;;18.14;100.00;99060.41;5073006;28;859;-63
2022/08/16 00:46:38;;;;;;;;;;;;;;;18.17;100.00;99067.06;5072779;28;840;-63
2022/08/16 00:49:06;;;;;;;;;;;;;;;18.17;100.00;99067.84;5072893;28;887;-62
2022/08/16 00:51:32;;;;;;;;;;;;;;;18.22;100.00;99065.66;5073021;28;903;-62
2022/08/16 00:53:59;;;;;;;;;;;;;;;18.21;100.00;99076.06;5072694;28;1898;-63
2022/08/16 00:56:28;;;;;;;;;;;;;;;18.25;100.00;99082.25;5072784;28;921;-62
2022/08/16 00:58:56;;;;;;;;;;;;;;;18.29;100.00;99082.88;5072692;28;910;-63
2022/08/16 01:01:22;;;;;;;;;;;;;;;18.31;100.00;99082.41;5073001;28;993;-63
2022/08/16 01:03:52;;;;;;;;;;;;;;;18.31;100.00;99085.19;5072605;28;890;-63
2022/08/16 01:06:20;;;;;;;;;;;;;;;18.30;100.00;99078.81;5072648;28;1283;-63
2022/08/16 01:08:49;;;;;;;;;;;;;;;18.33;100.00;99077.88;5072807;28;902;-63
2022/08/16 01:11:16;;;;;;;;;;;;;;;18.36;100.00;99079.72;5072481;28;887;-63
2022/08/16 01:13:43;;;;;;;;;;;;;;;18.40;100.00;99078.78;5072409;28;1890;-62
2022/08/16 01:16:15;;;;;;;;;;;;;;;18.43;100.00;99081.41;5072216;28;832;-63
2022/08/16 01:19:00;;;;;;;;;;;;;;;18.49;100.00;99079.50;5054393;28;915;-63
2022/08/16 01:21:42;;;;;;;;;;;;;;;18.55;100.00;99082.44;5072216;28;866;-62
2022/08/16 01:24:11;;;;;;;;;;;;;;;18.56;100.00;99065.19;5072334;28;823;-62
2022/08/16 01:26:39;;;;;;;;;;;;;;;18.52;100.00;99064.56;5072535;28;843;-62
2022/08/16 01:29:11;;;;;;;;;;;;;;;18.46;100.00;99072.06;5072066;28;852;-62
2022/08/16 01:31:38;;;;;;;;;;;;;;;18.33;100.00;99065.94;5072138;28;843;-62
2022/08/16 01:34:04;;;;;;;;;;;;;;;18.19;100.00;99067.38;5071920;28;1997;-63
2022/08/16 01:36:32;;;;;;;;;;;;;;;18.09;100.00;99071.44;5071992;28;841;-63
2022/08/16 01:38:58;;;;;;;;;;;;;;;18.03;100.00;99068.53;5071946;28;863;-63
2022/08/16 01:41:29;;;;;;;;;;;;;;;18.03;100.00;99065.75;5071950;28;847;-62
2022/08/16 01:43:56;;;;;;;;;;;;;;;18.01;100.00;99071.03;5071924;28;883;-62
2022/08/16 01:46:22;;;;;;;;;;;;;;;18.00;100.00;99072.25;5071761;28;894;-62
2022/08/16 01:48:53;;;;;;;;;;;;;;;18.00;100.00;99071.50;5053824;28;824;-63
2022/08/16 01:51:20;;;;;;;;;;;;;;;18.00;100.00;99068.69;5071765;28;851;-63
2022/08/16 01:53:47;;;;;;;;;;;;;;;18.00;100.00;99074.28;5071702;28;1951;-62
2022/08/16 01:56:14;;;;;;;;;;;;;;;17.99;100.00;99067.94;5071670;28;851;-62
2022/08/16 01:58:41;;;;;;;;;;;;;;;18.00;100.00;99074.28;5071664;28;926;-63
2022/08/16 02:01:08;;;;;;;;;;;;;;;18.08;100.00;99069.91;5071811;28;914;-63
2022/08/16 02:03:34;;;;;;;;;;;;;;;18.09;100.00;99066.66;5071637;28;887;-63
2022/08/16 02:06:00;;;;;;;;;;;;;;;18.11;100.00;99068.94;5071650;28;1094;-63
2022/08/16 02:08:27;;;;;;;;;;;;;;;18.10;100.00;99062.59;5071541;28;911;-63
2022/08/16 02:10:54;;;;;;;;;;;;;;;18.07;100.00;99060.75;5071552;28;839;-63
2022/08/16 02:13:21;;;;;;;;;;;;;;;18.07;100.00;99073.94;5071344;28;1898;-63
2022/08/16 02:15:47;;;;;;;;;;;;;;;18.02;100.00;99069.00;5071396;28;848;-63
2022/08/16 02:18:14;;;;;;;;;;;;;;;17.98;100.00;99068.38;5071429;28;800;-62
2022/08/16 02:20:46;;;;;;;;;;;;;;;17.93;100.00;99064.97;5071433;28;827;-63
2022/08/16 02:23:13;;;;;;;;;;;;;;;17.90;100.00;99060.34;5071378;28;863;-63
2022/08/16 02:25:40;;;;;;;;;;;;;;;17.89;100.00;99060.81;5071205;28;867;-63
2022/08/16 02:28:06;;;;;;;;;;;;;;;17.86;100.00;99062.53;5071068;28;836;-63
2022/08/16 02:30:32;;;;;;;;;;;;;;;17.86;100.00;99070.13;5071311;28;816;-63
2022/08/16 02:33:00;;;;;;;;;;;;;;;17.87;100.00;99066.09;5071242;28;1889;-63
2022/08/16 02:35:27;;;;;;;;;;;;;;;17.87;100.00;99075.25;5071231;28;876;-63
2022/08/16 02:37:53;;;;;;;;;;;;;;;17.89;100.00;99064.38;5071290;28;808;-63
2022/08/16 02:40:21;;;;;;;;;;;;;;;17.91;100.00;99066.69;5071199;28;839;-63
2022/08/16 02:42:48;;;;;;;;;;;;;;;17.93;100.00;99072.59;5071179;28;906;-63
2022/08/16 02:45:15;;;;;;;;;;;;;;;17.92;100.00;99071.03;5071063;28;930;-63
2022/08/16 02:47:41;;;;;;;;;;;;;;;17.89;100.00;99061.56;5071243;28;863;-63
2022/08/16 02:50:08;;;;;;;;;;;;;;;17.85;100.00;99055.38;5071141;28;917;-63
2022/08/16 02:52:35;;;;;;;;;;;;;;;17.81;100.00;99054.72;5071087;28;1894;-63
2022/08/16 02:55:02;;;;;;;;;;;;;;;17.73;100.00;99057.09;5071089;28;858;-63
2022/08/16 02:57:29;;;;;;;;;;;;;;;17.68;100.00;99043.75;5071360;28;843;-63
2022/08/16 02:59:57;;;;;;;;;;;;;;;17.64;100.00;99043.13;5071043;28;1043;-63
2022/08/16 03:02:24;;;;;;;;;;;;;;;17.65;100.00;99049.50;5070961;28;881;-63
2022/08/16 03:04:50;;;;;;;;;;;;;;;17.64;100.00;99050.75;5070906;28;1291;-63
2022/08/16 03:07:18;;;;;;;;;;;;;;;17.61;100.00;99058.06;5070984;28;875;-63
2022/08/16 03:09:45;;;;;;;;;;;;;;;17.57;100.00;99060.22;5071181;28;915;-62
2022/08/16 03:12:12;;;;;;;;;;;;;;;17.53;100.00;99052.00;5070928;28;871;-62
2022/08/16 03:14:38;;;;;;;;;;;;;;;17.51;100.00;99064.91;5070775;28;1949;-63
2022/08/16 03:17:05;;;;;;;;;;;;;;;17.47;100.00;99062.25;5070879;28;870;-63
2022/08/16 03:19:32;;;;;;;;;;;;;;;17.47;100.00;99067.06;5070853;28;820;-63
2022/08/16 03:21:58;;;;;;;;;;;;;;;17.47;100.00;99073.44;5071076;28;855;-63
2022/08/16 03:24:27;;;;;;;;;;;;;;;17.47;100.00;99079.00;5070986;28;819;-63
2022/08/16 03:26:54;;;;;;;;;;;;;;;17.48;100.00;99085.41;5070820;28;895;-63
2022/08/16 03:29:20;;;;;;;;;;;;;;;17.48;100.00;99088.97;5070743;28;871;-63
2022/08/16 03:31:48;;;;;;;;;;;;;;;17.49;100.00;99092.53;5070718;28;873;-62
2022/08/16 03:34:15;;;;;;;;;;;;;;;17.51;100.00;99095.63;5052710;28;1941;-63
2022/08/16 03:36:42;;;;;;;;;;;;;;;17.55;100.00;99097.00;5070733;28;875;-63
2022/08/16 03:39:09;;;;;;;;;;;;;;;17.58;100.00;99095.31;5072546;28;914;-62
2022/08/16 03:41:36;;;;;;;;;;;;;;;17.59;100.00;99087.72;5074196;28;882;-62
2022/08/16 03:44:05;;;;;;;;;;;;;;;17.59;100.00;99091.28;5074104;28;922;-62
2022/08/16 03:46:36;;;;;;;;;;;;;;;17.59;100.00;99091.28;5074084;28;811;-62
2022/08/16 03:49:03;;;;;;;;;;;;;;;17.59;100.00;99090.50;5074911;28;768;-62
2022/08/16 03:51:29;;;;;;;;;;;;;;;17.60;100.00;99097.63;5074329;28;836;-62
2022/08/16 03:53:56;;;;;;;;;;;;;;;17.61;100.00;99083.19;5074510;28;1882;-62
2022/08/16 03:56:25;;;;;;;;;;;;;;;17.60;100.00;99087.22;5074327;28;843;-62
2022/08/16 03:58:53;;;;;;;;;;;;;;;17.61;100.00;99088.03;5074034;28;1050;-63
2022/08/16 04:01:21;;;;;;;;;;;;;;;17.61;100.00;99088.78;5074204;28;1051;-62
2022/08/16 04:03:47;;;;;;;;;;;;;;;17.64;100.00;99099.00;5073815;28;915;-62
2022/08/16 04:06:14;;;;;;;;;;;;;;;17.68;100.00;99096.06;5073639;28;1431;-62
2022/08/16 04:08:41;;;;;;;;;;;;;;;17.73;100.00;99103.81;5073709;28;926;-62
2022/08/16 04:11:07;;;;;;;;;;;;;;;17.79;100.00;99093.56;5073707;28;891;-62
2022/08/16 04:13:34;;;;;;;;;;;;;;;17.88;100.00;99096.38;5073592;28;1909;-62
2022/08/16 04:16:01;;;;;;;;;;;;;;;17.97;100.00;99109.56;5073770;28;858;-62
2022/08/16 04:18:29;;;;;;;;;;;;;;;18.08;100.00;99100.66;5073634;28;828;-62
2022/08/16 04:20:56;;;;;;;;;;;;;;;18.19;100.00;99106.53;5073467;28;855;-62
2022/08/16 04:23:22;;;;;;;;;;;;;;;18.30;100.00;99109.59;5073466;28;898;-62
2022/08/16 04:25:49;;;;;;;;;;;;;;;18.41;100.00;99117.47;5073509;28;875;-62
2022/08/16 04:28:16;;;;;;;;;;;;;;;18.51;100.00;99118.97;5073483;28;852;-62
2022/08/16 04:30:44;;;;;;;;;;;;;;;18.63;100.00;99116.44;5073364;28;832;-62
2022/08/16 04:33:10;;;;;;;;;;;;;;;18.75;100.00;99121.03;5073579;28;1886;-62
2022/08/16 04:35:38;;;;;;;;;;;;;;;18.89;100.00;99122.38;5073174;28;871;-62
2022/08/16 04:38:05;;;;;;;;;;;;;;;19.02;100.00;99124.94;5073246;28;824;-62
2022/08/16 04:40:31;;;;;;;;;;;;;;;19.10;100.00;99129.72;5073157;28;812;-62
2022/08/16 04:43:00;;;;;;;;;;;;;;;19.18;100.00;99127.31;5073101;28;807;-62
2022/08/16 04:45:26;;;;;;;;;;;;;;;19.24;100.00;99131.00;5073068;28;898;-62
2022/08/16 04:47:53;;;;;;;;;;;;;;;19.29;100.00;99126.78;5055047;28;1299;-61
2022/08/16 04:50:22;;;;;;;;;;;;;;;19.30;100.00;99131.13;5072726;28;803;-62
2022/08/16 04:52:50;;;;;;;;;;;;;;;19.35;100.00;99124.84;5072828;28;1906;-62
2022/08/16 04:55:21;;;;;;;;;;;;;;;19.33;99.95;99124.56;5072804;28;882;-62
2022/08/16 04:57:49;;;;;;;;;;;;;;;19.40;99.63;99115.03;5072691;28;875;-62
2022/08/16 05:00:19;;;;;;;;;;;;;;;19.53;99.21;99123.94;5072790;28;897;-62
2022/08/16 05:02:47;;;;;;;;;;;;;;;19.68;98.98;99124.72;5072660;28;878;-62
2022/08/16 05:05:14;;;;;;;;;;;;;;;19.88;98.42;99118.47;5072327;28;1376;-62
2022/08/16 05:07:40;;;;;;;;;;;;;;;20.08;97.72;99120.63;5072589;28;839;-62
2022/08/16 05:10:07;;;;;;;;;;;;;;;20.30;97.38;99114.59;5054510;28;1322;-62
2022/08/16 05:12:35;;;;;;;;;;;;;;;20.53;96.21;99118.50;5072319;28;2009;-62
2022/08/16 05:15:02;;;;;;;;;;;;;;;20.76;95.56;99118.84;5072430;28;866;-62
2022/08/16 05:17:30;;;;;;;;;;;;;;;20.99;94.82;99117.13;5072382;28;883;-62
2022/08/16 05:19:57;;;;;;;;;;;;;;;21.21;93.82;99111.03;5072147;28;911;-62
2022/08/16 05:22:24;;;;;;;;;;;;;;;21.63;91.07;99112.53;5072263;28;847;-62
2022/08/16 05:24:51;;;;;;;;;;;;;;;22.27;88.20;99110.56;5072215;28;863;-62
2022/08/16 05:27:18;;;;;;;;;;;;;;;22.58;84.95;99115.41;5054162;28;1295;-62
2022/08/16 05:29:44;;;;;;;;;;;;;;;22.77;82.63;99120.63;5072122;28;819;-62
2022/08/16 05:32:11;;;;;;;;;;;;;;;22.81;82.79;99121.16;5072063;28;851;-62
2022/08/16 05:34:37;;;;;;;;;;;;;;;22.74;82.91;99121.63;5072130;28;1886;-62
2022/08/16 05:37:04;;;;;;;;;;;;;;;22.43;83.49;99126.03;5054072;28;1291;-62
2022/08/16 05:39:31;;;;;;;;;;;;;;;22.31;84.78;99118.78;5072000;28;890;-62
2022/08/16 05:41:57;;;;;;;;;;;;;;;22.39;84.50;99114.25;5071793;28;848;-62
2022/08/16 05:44:24;;;;;;;;;;;;;;;22.53;83.82;99118.94;5071865;28;816;-61
2022/08/16 05:46:56;;;;;;;;;;;;;;;22.74;82.85;99118.81;5071797;28;824;-62
2022/08/16 05:49:23;;;;;;;;;;;;;;;22.90;81.05;99118.13;5053870;28;1168;-61
2022/08/16 05:51:50;;;;;;;;;;;;;;;23.14;80.05;99117.00;5071724;28;824;-61
2022/08/16 05:54:16;;;;;;;;;;;;;;;23.53;78.14;99127.63;5071648;28;1889;-61
2022/08/16 05:56:44;;;;;;;;;;;;;;;23.95;76.21;99123.13;5071669;28;804;-62
2022/08/16 05:59:12;;;;;;;;;;;;;;;24.43;74.12;99122.09;5071783;28;887;-61
2022/08/16 06:01:39;;;;;;;;;;;;;;;24.90;70.63;99113.03;5071324;28;897;-61
2022/08/16 06:04:07;;;;;;;;;;;;;;;25.41;69.00;99125.72;5071596;28;796;-61
2022/08/16 06:06:33;;;;;;;;;;;;;;;25.95;66.31;99123.63;5053581;28;1290;-61
2022/08/16 06:09:00;;;;;;;;;;;;;;;26.38;65.80;99125.84;5071484;28;789;-61
2022/08/16 06:11:27;;;;;;;;;;;;;;;26.74;63.84;99137.13;5071413;28;847;-61
2022/08/16 06:13:54;;;;;;;;;;;;;;;26.95;62.88;99120.38;5071405;28;1921;-61
2022/08/16 06:16:21;;;;;;;;;;;;;;;27.29;61.11;99130.06;5071474;28;816;-61
2022/08/16 06:18:47;;;;;;;;;;;;;;;28.01;58.42;99125.97;5071753;28;851;-61
2022/08/16 06:21:15;;;;;;;;;;;;;;;28.56;57.04;99122.78;5053429;28;1219;-61
2022/08/16 06:23:40;;;;;;;;;;;;;;;28.82;56.65;99119.94;5053532;28;915;-61
2022/08/16 06:26:07;;;;;;;;;;;;;;;28.60;57.28;99118.28;5071340;28;828;-61
2022/08/16 06:28:34;;;;;;;;;;;;;;;28.23;57.18;99117.09;5071390;28;855;-61
2022/08/16 06:31:00;;;;;;;;;;;;;;;27.99;56.98;99120.06;5071271;28;832;-61
2022/08/16 06:33:28;;;;;;;;;;;;;;;28.05;58.17;99123.59;5071307;28;1985;-61
2022/08/16 06:35:55;;;;;;;;;;;;;;;28.40;56.97;99116.03;5071255;28;972;-61
2022/08/16 06:38:22;;;;;;;;;;;;;;;28.72;55.49;99124.53;5071328;28;839;-61
2022/08/16 06:40:49;;;;;;;;;;;;;;;28.86;54.51;99116.78;5071286;28;827;-61
2022/08/16 06:43:18;;;;;;;;;;;;;;;29.01;53.91;99121.91;5071198;28;879;-61
2022/08/16 06:45:45;;;;;;;;;;;;;;;29.30;53.89;99122.91;5053249;28;1321;-61
2022/08/16 06:48:12;;;;;;;;;;;;;;;29.90;52.70;99124.19;5071138;28;882;-61
2022/08/16 06:50:39;;;;;;;;;;;;;;;30.24;51.11;99124.13;5071248;28;870;-61
2022/08/16 06:53:06;;;;;;;;;;;;;;;30.36;51.06;99123.84;5071016;28;1889;-61
2022/08/16 06:55:35;;;;;;;;;;;;;;;30.62;50.54;99123.69;5071290;28;879;-61
2022/08/16 06:58:02;;;;;;;;;;;;;;;30.74;49.88;99130.59;5071257;28;855;-61
2022/08/16 07:00:29;;;;;;;;;;;;;;;30.93;48.99;99136.09;5071466;28;930;-61
2022/08/16 07:02:56;;;;;;;;;;;;;;;30.93;48.35;99123.91;5071258;28;820;-61
2022/08/16 07:05:22;;;;;;;;;;;;;;;30.72;49.54;99121.09;5071156;28;1232;-61
2022/08/16 07:07:51;;;;;;;;;;;;;;;30.87;48.96;99123.31;5071136;28;839;-61
2022/08/16 07:10:18;;;;;;;;;;;;;;;30.72;49.55;99121.84;5071329;28;835;-61
2022/08/16 07:12:46;;;;;;;;;;;;;;;30.93;48.17;99124.66;5072819;28;1913;-61
2022/08/16 07:15:12;;;;;;;;;;;;;;;31.24;47.88;99121.22;5074888;28;856;-61
2022/08/16 07:17:39;;;;;;;;;;;;;;;31.71;46.45;99125.81;5074923;28;800;-61
2022/08/16 07:20:07;;;;;;;;;;;;;;;32.28;45.12;99125.53;5075108;28;808;-61
2022/08/16 07:22:34;;;;;;;;;;;;;;;32.98;43.50;99119.78;5074821;28;883;-61
2022/08/16 07:25:00;;;;;;;;;;;;;;;33.41;41.54;99121.56;5074808;28;839;-61
2022/08/16 07:27:27;;;;;;;;;;;;;;;33.34;41.72;99123.09;5074759;28;812;-61
2022/08/16 07:29:54;;;;;;;;;;;;;;;33.75;40.94;99114.53;5074692;28;882;-61
2022/08/16 07:32:21;;;;;;;;;;;;;;;34.17;40.06;99117.53;5074885;28;827;-61
2022/08/16 07:34:47;;;;;;;;;;;;;;;34.23;39.16;99120.16;5074637;28;1943;-60
2022/08/16 07:37:14;;;;;;;;;;;;;;;33.73;39.88;99120.09;5074755;28;836;-61
2022/08/16 07:39:41;;;;;;;;;;;;;;;33.88;39.86;99119.22;5074300;28;882;-60
2022/08/16 07:42:08;;;;;;;;;;;;;;;34.22;39.46;99112.16;5074560;28;796;-61
2022/08/16 07:44:35;;;;;;;;;;;;;;;34.38;39.31;99121.41;5074226;28;832;-61
2022/08/16 07:47:02;;;;;;;;;;;;;;;34.91;37.84;99120.91;5074514;28;851;-60
2022/08/16 07:49:28;;;;;;;;;;;;;;;34.91;37.30;99118.03;5074322;28;823;-60
2022/08/16 07:51:55;;;;;;;;;;;;;;;34.91;36.95;99123.78;5074051;28;879;-60
2022/08/16 07:54:21;;;;;;;;;;;;;;;34.69;37.58;99111.16;5073893;28;1882;-60
2022/08/16 07:56:48;;;;;;;;;;;;;;;34.69;38.56;99116.91;5073944;28;911;-60
2022/08/16 07:59:14;;;;;;;;;;;;;;;34.56;37.84;99115.09;5073870;28;840;-60
2022/08/16 08:01:41;;;;;;;;;;;;;;;34.73;37.81;99116.50;5073794;28;1008;-60
2022/08/16 08:04:11;;;;;;;;;;;;;;;34.62;37.52;99111.97;5055872;28;841;-60
2022/08/16 08:06:40;;;;;;;;;;;;;;;34.34;38.52;99105.34;5074543;28;788;-60
2022/08/16 08:09:06;;;;;;;;;;;;;;;34.44;37.42;99108.34;5073868;28;856;-60
2022/08/16 08:11:34;;;;;;;;;;;;;;;34.46;37.06;99099.13;5073911;28;823;-60
2022/08/16 08:14:01;;;;;;;;;;;;;;;34.79;36.58;99114.16;5073754;28;1902;-60
2022/08/16 08:16:27;;;;;;;;;;;;;;;34.95;36.60;99103.25;5073798;28;889;-60
2022/08/16 08:18:54;;;;;;;;;;;;;;;35.11;36.00;99101.72;5073863;28;887;-60
2022/08/16 08:21:23;;;;;;;;;;;;;;;34.72;36.29;99097.78;5073820;28;895;-60
2022/08/16 08:23:50;;;;;;;;;;;;;;;34.84;35.55;99092.28;5072898;28;808;-61
2022/08/16 08:26:18;;;;;;;;;;;;;;;34.59;36.05;99090.22;5073443;28;843;-60
2022/08/16 08:28:45;;;;;;;;;;;;;;;34.92;35.51;99093.72;5073400;28;902;-60
2022/08/16 08:31:11;;;;;;;;;;;;;;;34.93;34.50;99080.13;5073663;28;878;-61
2022/08/16 08:33:38;;;;;;;;;;;;;;;35.05;35.26;99078.25;5073232;28;1956;-60
2022/08/16 08:36:06;;;;;;;;;;;;;;;35.33;34.39;99079.09;5073272;28;975;-60
2022/08/16 08:38:34;;;;;;;;;;;;;;;35.58;34.15;99076.81;5073112;28;795;-60
2022/08/16 08:41:03;;;;;;;;;;;;;;;35.51;34.48;99077.69;5073100;28;909;-61
2022/08/16 08:43:30;;;;;;;;;;;;;;;35.71;33.68;99083.56;5073131;28;883;-60
2022/08/16 08:45:57;;;;;;;;;;;;;;;35.67;33.87;99083.25;5072996;28;881;-60
2022/08/16 08:48:24;;;;;;;;;;;;;;;35.64;34.72;99075.84;5073039;28;847;-60
2022/08/16 08:50:51;;;;;;;;;;;;;;;35.73;33.71;99075.88;5073037;28;832;-61
2022/08/16 08:53:18;;;;;;;;;;;;;;;35.64;34.24;99067.97;5054790;28;1906;-60
2022/08/16 08:55:48;;;;;;;;;;;;;;;35.41;34.46;99067.50;5072866;28;902;-60
2022/08/16 08:58:15;;;;;;;;;;;;;;;35.43;34.77;99051.19;5072811;28;820;-60
2022/08/16 09:00:42;;;;;;;;;;;;;;;35.70;33.55;99054.09;5054794;28;1151;-60
2022/08/16 09:03:09;;;;;;;;;;;;;;;35.66;33.80;99067.38;5072681;28;890;-60
2022/08/16 09:05:35;;;;;;;;;;;;;;;35.31;33.45;99056.69;5072281;28;1242;-61
2022/08/16 09:08:03;;;;;;;;;;;;;;;35.45;33.84;99067.84;5072711;28;894;-60
2022/08/16 09:10:31;;;;;;;;;;;;;;;35.76;32.04;99057.44;5072801;28;879;-60
2022/08/16 09:12:57;;;;;;;;;;;;;;;36.21;33.27;99059.44;5054449;28;1918;-60
2022/08/16 09:15:25;;;;;;;;;;;;;;;35.99;32.61;99034.06;5072434;28;875;-60
2022/08/16 09:17:54;;;;;;;;;;;;;;;35.85;33.04;99050.22;5072521;28;839;-60
2022/08/16 09:20:24;;;;;;;;;;;;;;;35.86;32.77;99036.59;5072272;28;844;-60
2022/08/16 09:22:52;;;;;;;;;;;;;;;35.91;32.79;99033.47;5072522;28;859;-60
2022/08/16 09:25:18;;;;;;;;;;;;;;;36.33;32.77;99038.13;5072233;28;887;-60
2022/08/16 09:27:45;;;;;;;;;;;;;;;36.77;32.26;99037.13;5072240;28;816;-60
2022/08/16 09:30:12;;;;;;;;;;;;;;;36.87;30.75;99042.13;5072161;28;970;-60
2022/08/16 10:01:30;;;;;;;;;;;;;;;36.03;32.58;99027.13;5978282;22;1671;-60
2022/08/16 10:03:57;;;;;;;;;;;;;;;36.45;30.83;99026.78;5071622;28;874;-58
2022/08/16 10:06:24;;;;;;;;;;;;;;;36.67;31.29;99029.88;5071950;28;835;-58
2022/08/16 10:08:52;;;;;;;;;;;;;;;36.78;31.09;99041.50;5071548;28;862;-58
2022/08/16 10:14:03;;;;;;;;;;;;;;;37.13;29.53;99035.47;5071534;28;1909;-59
2022/08/16 10:16:30;;;;;;;;;;;;;;;37.25;30.01;99040.59;5071445;28;917;-58
2022/08/16 10:18:57;;;;;;;;;;;;;;;37.63;29.22;99039.78;5071522;28;864;-58
2022/08/16 10:21:24;;;;;;;;;;;;;;;37.67;29.46;99034.28;5071429;28;887;-58
2022/08/16 10:23:53;;;;;;;;;;;;;;;37.02;30.22;99036.03;5071418;28;908;-60
2022/08/16 10:26:23;;;;;;;;;;;;;;;36.42;31.14;99025.09;5071498;28;871;-60
2022/08/16 10:28:50;;;;;;;;;;;;;;;35.73;32.44;99026.25;5071593;28;871;-60
2022/08/16 10:31:17;;;;;;;;;;;;;;;34.75;32.95;99031.34;5071578;28;839;-61
2022/08/16 10:33:44;;;;;;;;;;;;;;;35.08;33.19;99025.41;5071689;28;1951;-60
2022/08/16 10:36:12;;;;;;;;;;;;;;;34.91;33.35;99028.28;5053455;28;1173;-61
2022/08/16 10:38:39;;;;;;;;;;;;;;;34.23;33.75;99042.00;5071428;28;875;-61
2022/08/16 10:41:07;;;;;;;;;;;;;;;33.04;33.39;99055.25;5071566;28;820;-61
2022/08/16 10:43:35;;;;;;;;;;;;;;;32.26;33.50;99065.34;5071556;28;847;-61
2022/08/16 10:49:04;;;;;;;;;;;;;;;30.60;37.85;99063.63;5074880;28;1235;-63
2022/08/16 10:51:31;;;;;;;;;;;;;;;29.80;38.92;99061.22;5075274;28;886;-64
2022/08/16 10:53:58;;;;;;;;;;;;;;;29.28;41.37;99063.69;5075016;28;1893;-63
2022/08/16 10:56:28;;;;;;;;;;;;;;;29.39;42.02;99071.22;5075170;28;855;-63
2022/08/16 10:59:13;;;;;;;;;;;;;;;30.37;42.53;99076.94;5075059;28;875;-63
2022/08/16 11:04:50;;;;;;;;;;;;;;;29.46;44.40;99070.53;5093266;28;1175;-64
2022/08/16 11:07:15;;;;;;;;;;;;;;;28.76;46.67;99079.47;5095130;28;838;-63
2022/08/16 11:09:42;;;;;;;;;;;;;;;28.12;48.49;99093.78;5095200;28;890;-63
2022/08/16 11:12:11;;;;;;;;;;;;;;;27.57;46.53;99088.41;5095144;28;815;-64
2022/08/16 11:14:42;;;;;;;;;;;;;;;27.23;48.28;99094.56;5094943;28;1914;-65
2022/08/16 11:17:12;;;;;;;;;;;;;;;27.09;48.36;99085.16;5095649;28;850;-63
2022/08/16 11:19:41;;;;;;;;;;;;;;;27.61;45.62;99089.66;5094984;28;834;-63
2022/08/16 11:22:09;;;;;;;;;;;;;;;27.76;44.04;99096.91;5094965;28;866;-63
2022/08/16 11:24:39;;;;;;;;;;;;;;;27.18;47.85;99089.69;5094863;28;902;-63
2022/08/16 11:27:07;;;;;;;;;;;;;;;26.85;50.58;99078.22;5094851;28;827;-63
2022/08/16 11:29:34;;;;;;;;;;;;;;;26.83;49.96;99094.25;5094707;28;922;-63
2022/08/16 11:32:04;;;;;;;;;;;;;;;26.15;51.12;99088.44;5094755;28;819;-63
2022/08/16 11:34:30;;;;;;;;;;;;;;;25.01;56.28;99091.16;5094603;28;1885;-64
2022/08/16 11:36:58;;;;;;;;;;;;;;;24.25;63.94;99095.16;5076416;28;1341;-63
2022/08/16 11:39:25;;;;;;;;;;;;;;;23.52;69.22;99097.91;5094628;28;890;-63
2022/08/16 11:41:51;;;;;;;;;;;;;;;22.66;72.14;99112.09;5094578;28;815;-63
2022/08/16 11:44:18;;;;;;;;;;;;;;;22.37;68.25;99111.91;5094471;28;930;-62
2022/08/16 11:46:45;;;;;;;;;;;;;;;22.59;71.88;99110.53;5076255;28;1174;-62
2022/08/16 11:49:12;;;;;;;;;;;;;;;22.66;73.05;99112.09;5094668;28;828;-62
2022/08/16 11:51:42;;;;;;;;;;;;;;;22.70;70.93;99140.81;5076108;28;1191;-65
2022/08/16 11:54:40;;;;;;;;;;;;;;;22.01;70.91;99133.84;5094291;28;1889;-64
2022/08/16 11:57:07;;;;;;;;;;;;;;;20.78;75.88;99141.59;5084281;28;1152;-65
2022/08/16 11:59:35;;;;;;;;;;;;;;;19.72;86.71;99150.56;5093144;28;874;-63
2022/08/16 12:02:01;;;;;;;;;;;;;;;18.97;93.62;99146.00;5076184;28;1079;-65
2022/08/16 12:04:28;;;;;;;;;;;;;;;18.79;96.75;99118.84;5094110;28;1327;-65
2022/08/16 12:06:56;;;;;;;;;;;;;;;18.64;99.53;99101.97;5094138;28;815;-60
2022/08/16 12:12:34;;;;;;;;;;;;;;;18.71;100.00;99101.63;5094083;28;732;-60
2022/08/16 12:15:06;;;;;;;;;;;;;;;19.17;100.00;99104.13;5093840;28;1905;-59
2022/08/16 12:17:33;;;;;;;;;;;;;;;19.79;100.00;99115.78;5093882;28;816;-59
2022/08/16 12:20:00;;;;;;;;;;;;;;;20.50;99.33;99116.66;5093891;28;858;-59
2022/08/16 12:22:28;;;;;;;;;;;;;;;21.70;98.08;99116.94;5093903;28;906;-60
2022/08/16 12:24:54;;;;;;;;;;;;;;;23.10;89.49;99103.13;5093787;28;866;-61
2022/08/16 12:27:23;;;;;;;;;;;;;;;24.17;81.89;99099.78;5093668;28;839;-65
2022/08/16 12:29:50;;;;;;;;;;;;;;;25.31;75.92;99095.44;5093556;28;843;-67
2022/08/16 12:32:17;;;;;;;;;;;;;;;26.77;70.19;99085.78;5093578;28;1040;-68
2022/08/16 12:34:44;;;;;;;;;;;;;;;28.23;63.60;99093.59;5093448;28;1890;-69
2022/08/16 12:37:12;;;;;;;;;;;;;;;28.56;57.52;99089.41;5093445;28;867;-66
2022/08/16 12:39:39;;;;;;;;;;;;;;;27.94;56.69;99098.22;5093440;28;867;-63
2022/08/16 12:42:08;;;;;;;;;;;;;;;27.38;57.78;99094.88;5075237;28;1298;-62
2022/08/16 12:44:35;;;;;;;;;;;;;;;27.25;59.77;99089.88;5093308;28;819;-62
2022/08/16 12:49:58;;;;;;;;;;;;;;;27.02;57.14;99085.78;5030935;28;1381;-61
2022/08/16 12:52:26;;;;;;;;;;;;;;;26.64;56.88;99083.63;5031192;28;859;-63
2022/08/16 12:54:55;;;;;;;;;;;;;;;26.40;59.25;99083.59;5031135;28;1882;-62
2022/08/16 12:57:24;;;;;;;;;;;;;;;26.11;60.89;99087.97;5030810;28;925;-62
2022/08/16 12:59:51;;;;;;;;;;;;;;;26.06;61.98;99092.38;5030673;28;1096;-62
2022/08/16 13:02:18;;;;;;;;;;;;;;;26.14;62.38;99070.69;5030652;28;967;-62
2022/08/16 13:04:45;;;;;;;;;;;;;;;26.51;61.68;99089.16;5020113;28;1459;-62
2022/08/16 13:07:12;;;;;;;;;;;;;;;26.99;65.46;99079.13;5010905;28;912;-62
2022/08/16 13:09:50;;;;;;;;;;;;;;;27.73;67.34;99084.56;5010891;28;860;-62
2022/08/16 13:12:22;;;;;;;;;;;;;;;29.34;66.95;99069.28;5010833;28;1097;-61
2022/08/16 13:14:50;;;;;;;;;;;;;;;30.01;66.75;99072.63;5010757;28;1972;-61
2022/08/16 13:17:20;;;;;;;;;;;;;;;29.85;68.00;99070.94;5010716;28;872;-62
2022/08/16 13:19:48;;;;;;;;;;;;;;;29.38;70.13;99063.22;5010891;28;1083;-61
2022/08/16 13:22:15;;;;;;;;;;;;;;;28.90;72.54;99063.19;5010636;28;927;-62
2022/08/16 13:24:42;;;;;;;;;;;;;;;28.56;76.28;99057.41;5010660;28;877;-62
2022/08/16 13:27:09;;;;;;;;;;;;;;;28.27;79.27;99055.06;5061989;28;923;-62
2022/08/16 13:29:37;;;;;;;;;;;;;;;28.19;80.65;99054.16;5071969;28;1169;-61
2022/08/16 13:32:09;;;;;;;;;;;;;;;28.22;79.24;99055.13;5072076;28;851;-62
2022/08/16 13:34:37;;;;;;;;;;;;;;;28.36;78.71;99058.75;5072036;28;1921;-62
2022/08/16 13:37:03;;;;;;;;;;;;;;;28.47;77.51;99064.25;5054173;28;875;-62
2022/08/16 13:39:30;;;;;;;;;;;;;;;28.58;76.65;99055.53;5071956;28;804;-62
2022/08/16 13:42:01;;;;;;;;;;;;;;;28.82;75.05;99056.63;5071945;28;883;-61
2022/08/16 13:44:27;;;;;;;;;;;;;;;29.12;74.03;99053.44;5071863;28;898;-61
2022/08/16 13:46:55;;;;;;;;;;;;;;;29.41;75.10;99053.59;5071882;28;815;-61